sensor_id;sensor_type;location;lat;lon;timestamp;temperature;humidity
71627;DHT22;59475;52.464;13.590;2023-03-11T00:00:14;1.52;95.90
71627;DHT22;59475;52.464;13.590;2023-03-11T00:02:47;1.54;95.94
71627;DHT22;59475;52.464;13.590;2023-03-11T00:05:16;1.52;95.99
71627;DHT22;59475;52.464;13.590;2023-03-11T00:07:41;1.52;96.00
71627;DHT22;59475;52.464;13.590;2023-03-11T00:10:09;1.54;96.09
71627;DHT22;59475;52.464;13.590;2023-03-11T00:12:37;1.55;96.11
71627;DHT22;59475;52.464;13.590;2023-03-11T00:15:03;1.48;95.97
71627;DHT22;59475;52.464;13.590;2023-03-11T00:17:28;1.48;95.89
71627;DHT22;59475;52.464;13.590;2023-03-11T00:19:54;1.44;95.91
71627;DHT22;59475;52.464;13.590;2023-03-11T00:22:19;1.42;95.90
71627;DHT22;59475;52.464;13.590;2023-03-11T00:24:45;1.37;95.97
71627;DHT22;59475;52.464;13.590;2023-03-11T00:27:10;1.32;95.99
71627;DHT22;59475;52.464;13.590;2023-03-11T00:29:35;1.24;96.10
71627;DHT22;59475;52.464;13.590;2023-03-11T00:32:01;1.13;96.15
71627;DHT22;59475;52.464;13.590;2023-03-11T00:34:26;0.99;96.14
71627;DHT22;59475;52.464;13.590;2023-03-11T00:36:51;0.94;96.23
71627;DHT22;59475;52.464;13.590;2023-03-11T00:39:17;0.82;96.28
71627;DHT22;59475;52.464;13.590;2023-03-11T00:41:42;0.83;96.37
71627;DHT22;59475;52.464;13.590;2023-03-11T00:44:07;0.73;96.49
71627;DHT22;59475;52.464;13.590;2023-03-11T00:46:33;0.75;96.65
71627;DHT22;59475;52.464;13.590;2023-03-11T00:48:58;0.70;96.70
71627;DHT22;59475;52.464;13.590;2023-03-11T00:51:24;0.70;96.77
71627;DHT22;59475;52.464;13.590;2023-03-11T00:53:49;0.68;96.77
71627;DHT22;59475;52.464;13.590;2023-03-11T00:56:15;0.69;96.71
71627;DHT22;59475;52.464;13.590;2023-03-11T00:58:42;0.68;96.77
71627;DHT22;59475;52.464;13.590;2023-03-11T01:01:09;0.63;96.80
71627;DHT22;59475;52.464;13.590;2023-03-11T01:03:36;0.68;96.84
71627;DHT22;59475;52.464;13.590;2023-03-11T01:06:02;0.65;96.82
71627;DHT22;59475;52.464;13.590;2023-03-11T01:08:28;0.61;96.85
71627;DHT22;59475;52.464;13.590;2023-03-11T01:10:56;0.61;96.80
71627;DHT22;59475;52.464;13.590;2023-03-11T01:13:21;0.61;96.76
71627;DHT22;59475;52.464;13.590;2023-03-11T01:15:47;0.61;96.84
71627;DHT22;59475;52.464;13.590;2023-03-11T01:18:12;0.58;96.99
71627;DHT22;59475;52.464;13.590;2023-03-11T01:20:38;0.56;96.87
71627;DHT22;59475;52.464;13.590;2023-03-11T01:23:05;0.56;96.63
71627;DHT22;59475;52.464;13.590;2023-03-11T01:25:30;0.52;96.78
71627;DHT22;59475;52.464;13.590;2023-03-11T01:27:56;0.56;96.87
71627;DHT22;59475;52.464;13.590;2023-03-11T01:30:23;0.58;96.77
71627;DHT22;59475;52.464;13.590;2023-03-11T01:32:50;0.55;96.86
71627;DHT22;59475;52.464;13.590;2023-03-11T01:35:18;0.54;96.95
71627;DHT22;59475;52.464;13.590;2023-03-11T01:37:44;0.54;96.98
71627;DHT22;59475;52.464;13.590;2023-03-11T01:40:17;0.54;97.08
71627;DHT22;59475;52.464;13.590;2023-03-11T01:42:43;0.55;96.93
71627;DHT22;59475;52.464;13.590;2023-03-11T01:47:48;0.55;96.95
71627;DHT22;59475;52.464;13.590;2023-03-11T01:50:14;0.54;96.96
71627;DHT22;59475;52.464;13.590;2023-03-11T01:52:40;0.52;97.04
71627;DHT22;59475;52.464;13.590;2023-03-11T01:55:07;0.54;97.13
71627;DHT22;59475;52.464;13.590;2023-03-11T01:57:35;0.55;97.08
71627;DHT22;59475;52.464;13.590;2023-03-11T02:00:03;0.54;97.18
71627;DHT22;59475;52.464;13.590;2023-03-11T02:02:35;0.54;97.16
71627;DHT22;59475;52.464;13.590;2023-03-11T02:05:01;0.55;97.13
71627;DHT22;59475;52.464;13.590;2023-03-11T02:07:27;0.52;97.24
71627;DHT22;59475;52.464;13.590;2023-03-11T02:09:53;0.55;97.14
71627;DHT22;59475;52.464;13.590;2023-03-11T02:12:18;0.54;97.11
71627;DHT22;59475;52.464;13.590;2023-03-11T02:14:47;0.51;97.18
71627;DHT22;59475;52.464;13.590;2023-03-11T02:17:13;0.56;97.17
71627;DHT22;59475;52.464;13.590;2023-03-11T02:22:13;0.56;97.05
71627;DHT22;59475;52.464;13.590;2023-03-11T02:27:22;0.58;97.12
71627;DHT22;59475;52.464;13.590;2023-03-11T02:29:49;0.61;96.98
71627;DHT22;59475;52.464;13.590;2023-03-11T02:32:16;0.63;96.81
71627;DHT22;59475;52.464;13.590;2023-03-11T02:34:42;0.65;96.75
71627;DHT22;59475;52.464;13.590;2023-03-11T02:37:14;0.63;96.73
71627;DHT22;59475;52.464;13.590;2023-03-11T02:39:45;0.68;96.44
71627;DHT22;59475;52.464;13.590;2023-03-11T02:44:40;0.68;96.51
71627;DHT22;59475;52.464;13.590;2023-03-11T02:47:06;0.70;96.34
71627;DHT22;59475;52.464;13.590;2023-03-11T02:49:33;0.72;96.32
71627;DHT22;59475;52.464;13.590;2023-03-11T02:51:59;0.73;96.25
71627;DHT22;59475;52.464;13.590;2023-03-11T02:54:25;0.72;96.17
71627;DHT22;59475;52.464;13.590;2023-03-11T02:56:50;0.72;96.33
71627;DHT22;59475;52.464;13.590;2023-03-11T02:59:15;0.72;96.41
71627;DHT22;59475;52.464;13.590;2023-03-11T03:01:41;0.68;96.38
71627;DHT22;59475;52.464;13.590;2023-03-11T03:04:06;0.69;96.20
71627;DHT22;59475;52.464;13.590;2023-03-11T03:06:32;0.72;96.15
71627;DHT22;59475;52.464;13.590;2023-03-11T03:08:57;0.73;96.03
71627;DHT22;59475;52.464;13.590;2023-03-11T03:11:22;0.75;95.99
71627;DHT22;59475;52.464;13.590;2023-03-11T03:13:48;0.75;95.96
71627;DHT22;59475;52.464;13.590;2023-03-11T03:16:13;0.72;96.17
71627;DHT22;59475;52.464;13.590;2023-03-11T03:18:38;0.69;96.40
71627;DHT22;59475;52.464;13.590;2023-03-11T03:21:04;0.75;96.16
71627;DHT22;59475;52.464;13.590;2023-03-11T03:23:29;0.75;96.08
71627;DHT22;59475;52.464;13.590;2023-03-11T03:26:02;0.75;96.19
71627;DHT22;59475;52.464;13.590;2023-03-11T03:28:28;0.73;96.16
71627;DHT22;59475;52.464;13.590;2023-03-11T03:30:53;0.72;96.34
71627;DHT22;59475;52.464;13.590;2023-03-11T03:33:19;0.75;96.24
71627;DHT22;59475;52.464;13.590;2023-03-11T03:35:45;0.73;96.17
71627;DHT22;59475;52.464;13.590;2023-03-11T03:38:11;0.73;96.18
71627;DHT22;59475;52.464;13.590;2023-03-11T03:40:38;0.69;96.42
71627;DHT22;59475;52.464;13.590;2023-03-11T03:43:04;0.68;96.50
71627;DHT22;59475;52.464;13.590;2023-03-11T03:45:29;0.65;96.74
71627;DHT22;59475;52.464;13.590;2023-03-11T03:47:55;0.62;96.77
71627;DHT22;59475;52.464;13.590;2023-03-11T03:50:20;0.68;96.54
71627;DHT22;59475;52.464;13.590;2023-03-11T03:52:46;0.65;96.73
71627;DHT22;59475;52.464;13.590;2023-03-11T03:55:11;0.62;96.78
71627;DHT22;59475;52.464;13.590;2023-03-11T03:57:37;0.63;96.76
71627;DHT22;59475;52.464;13.590;2023-03-11T04:00:03;0.65;96.73
71627;DHT22;59475;52.464;13.590;2023-03-11T04:02:29;0.63;96.78
71627;DHT22;59475;52.464;13.590;2023-03-11T04:04:55;0.59;96.98
71627;DHT22;59475;52.464;13.590;2023-03-11T04:07:20;0.55;97.09
71627;DHT22;59475;52.464;13.590;2023-03-11T04:09:46;0.59;97.08
71627;DHT22;59475;52.464;13.590;2023-03-11T04:12:15;0.58;97.02
71627;DHT22;59475;52.464;13.590;2023-03-11T04:14:42;0.61;97.04
71627;DHT22;59475;52.464;13.590;2023-03-11T04:17:12;0.61;97.00
71627;DHT22;59475;52.464;13.590;2023-03-11T04:19:38;0.59;96.99
71627;DHT22;59475;52.464;13.590;2023-03-11T04:22:04;0.61;97.01
71627;DHT22;59475;52.464;13.590;2023-03-11T04:24:29;0.58;96.90
71627;DHT22;59475;52.464;13.590;2023-03-11T04:26:54;0.61;96.64
71627;DHT22;59475;52.464;13.590;2023-03-11T04:29:20;0.62;96.64
71627;DHT22;59475;52.464;13.590;2023-03-11T04:31:45;0.65;96.67
71627;DHT22;59475;52.464;13.590;2023-03-11T04:34:11;0.61;96.57
71627;DHT22;59475;52.464;13.590;2023-03-11T04:36:36;0.63;96.55
71627;DHT22;59475;52.464;13.590;2023-03-11T04:39:02;0.63;96.53
71627;DHT22;59475;52.464;13.590;2023-03-11T04:41:27;0.68;96.36
71627;DHT22;59475;52.464;13.590;2023-03-11T04:43:53;0.68;96.46
71627;DHT22;59475;52.464;13.590;2023-03-11T04:46:18;0.68;96.61
71627;DHT22;59475;52.464;13.590;2023-03-11T04:48:44;0.70;96.27
71627;DHT22;59475;52.464;13.590;2023-03-11T04:51:09;0.69;96.33
71627;DHT22;59475;52.464;13.590;2023-03-11T04:53:34;0.68;96.31
71627;DHT22;59475;52.464;13.590;2023-03-11T04:56:00;0.68;96.28
71627;DHT22;59475;52.464;13.590;2023-03-11T04:58:26;0.73;96.12
71627;DHT22;59475;52.464;13.590;2023-03-11T05:00:51;0.73;96.04
71627;DHT22;59475;52.464;13.590;2023-03-11T05:03:17;0.72;96.22
71627;DHT22;59475;52.464;13.590;2023-03-11T05:05:43;0.72;96.12
71627;DHT22;59475;52.464;13.590;2023-03-11T05:08:08;0.75;96.00
71627;DHT22;59475;52.464;13.590;2023-03-11T05:10:34;0.75;96.12
71627;DHT22;59475;52.464;13.590;2023-03-11T05:13:00;0.73;96.11
71627;DHT22;59475;52.464;13.590;2023-03-11T05:15:26;0.72;96.13
71627;DHT22;59475;52.464;13.590;2023-03-11T05:17:53;0.77;95.61
71627;DHT22;59475;52.464;13.590;2023-03-11T05:20:18;0.79;95.44
71627;DHT22;59475;52.464;13.590;2023-03-11T05:22:44;0.77;95.53
71627;DHT22;59475;52.464;13.590;2023-03-11T05:25:09;0.80;95.71
71627;DHT22;59475;52.464;13.590;2023-03-11T05:27:34;0.77;95.48
71627;DHT22;59475;52.464;13.590;2023-03-11T05:30:00;0.80;95.27
71627;DHT22;59475;52.464;13.590;2023-03-11T05:32:25;0.77;95.39
71627;DHT22;59475;52.464;13.590;2023-03-11T05:34:50;0.76;95.64
71627;DHT22;59475;52.464;13.590;2023-03-11T05:37:17;0.79;95.41
71627;DHT22;59475;52.464;13.590;2023-03-11T05:39:42;0.76;95.52
71627;DHT22;59475;52.464;13.590;2023-03-11T05:42:08;0.79;95.53
71627;DHT22;59475;52.464;13.590;2023-03-11T05:44:33;0.77;95.51
71627;DHT22;59475;52.464;13.590;2023-03-11T05:46:59;0.76;95.48
71627;DHT22;59475;52.464;13.590;2023-03-11T05:49:24;0.77;95.48
71627;DHT22;59475;52.464;13.590;2023-03-11T05:51:50;0.76;95.39
71627;DHT22;59475;52.464;13.590;2023-03-11T05:54:17;0.75;95.41
71627;DHT22;59475;52.464;13.590;2023-03-11T05:56:44;0.76;95.57
71627;DHT22;59475;52.464;13.590;2023-03-11T05:59:11;0.79;95.48
71627;DHT22;59475;52.464;13.590;2023-03-11T06:01:36;0.79;95.43
71627;DHT22;59475;52.464;13.590;2023-03-11T06:04:02;0.83;95.49
71627;DHT22;59475;52.464;13.590;2023-03-11T06:06:28;0.79;95.49
71627;DHT22;59475;52.464;13.590;2023-03-11T06:08:54;0.80;95.61
71627;DHT22;59475;52.464;13.590;2023-03-11T06:11:20;0.80;95.54
71627;DHT22;59475;52.464;13.590;2023-03-11T06:13:45;0.80;95.46
71627;DHT22;59475;52.464;13.590;2023-03-11T06:16:11;0.80;95.35
71627;DHT22;59475;52.464;13.590;2023-03-11T06:18:36;0.79;95.23
71627;DHT22;59475;52.464;13.590;2023-03-11T06:21:03;0.80;95.11
71627;DHT22;59475;52.464;13.590;2023-03-11T06:23:29;0.82;95.14
71627;DHT22;59475;52.464;13.590;2023-03-11T06:25:59;0.83;95.03
71627;DHT22;59475;52.464;13.590;2023-03-11T06:28:25;0.87;95.08
71627;DHT22;59475;52.464;13.590;2023-03-11T06:30:51;0.87;94.75
71627;DHT22;59475;52.464;13.590;2023-03-11T06:33:16;0.87;94.74
71627;DHT22;59475;52.464;13.590;2023-03-11T06:35:41;0.93;94.76
71627;DHT22;59475;52.464;13.590;2023-03-11T06:38:07;0.92;94.98
71627;DHT22;59475;52.464;13.590;2023-03-11T06:40:32;0.89;94.89
71627;DHT22;59475;52.464;13.590;2023-03-11T06:42:58;0.89;95.26
71627;DHT22;59475;52.464;13.590;2023-03-11T06:45:23;0.83;95.45
71627;DHT22;59475;52.464;13.590;2023-03-11T06:47:49;0.68;95.60
71627;DHT22;59475;52.464;13.590;2023-03-11T06:50:15;0.62;95.30
71627;DHT22;59475;52.464;13.590;2023-03-11T06:52:40;0.55;95.07
71627;DHT22;59475;52.464;13.590;2023-03-11T06:55:06;0.54;95.10
71627;DHT22;59475;52.464;13.590;2023-03-11T06:57:32;0.51;95.56
71627;DHT22;59475;52.464;13.590;2023-03-11T06:59:58;0.52;95.85
71627;DHT22;59475;52.464;13.590;2023-03-11T07:02:23;0.59;95.67
71627;DHT22;59475;52.464;13.590;2023-03-11T07:04:49;0.62;95.26
71627;DHT22;59475;52.464;13.590;2023-03-11T07:07:14;0.69;94.76
71627;DHT22;59475;52.464;13.590;2023-03-11T07:09:40;0.76;94.73
71627;DHT22;59475;52.464;13.590;2023-03-11T07:12:05;0.76;94.73
71627;DHT22;59475;52.464;13.590;2023-03-11T07:14:34;0.77;94.82
71627;DHT22;59475;52.464;13.590;2023-03-11T07:16:59;0.79;94.43
71627;DHT22;59475;52.464;13.590;2023-03-11T07:19:25;0.80;93.97
71627;DHT22;59475;52.464;13.590;2023-03-11T07:21:50;0.79;94.30
71627;DHT22;59475;52.464;13.590;2023-03-11T07:24:15;0.79;93.05
71627;DHT22;59475;52.464;13.590;2023-03-11T07:26:41;0.82;93.18
71627;DHT22;59475;52.464;13.590;2023-03-11T07:29:06;0.87;92.70
71627;DHT22;59475;52.464;13.590;2023-03-11T07:31:33;0.93;92.27
71627;DHT22;59475;52.464;13.590;2023-03-11T07:34:02;0.97;91.96
71627;DHT22;59475;52.464;13.590;2023-03-11T07:36:28;0.99;92.23
71627;DHT22;59475;52.464;13.590;2023-03-11T07:38:59;0.96;92.88
71627;DHT22;59475;52.464;13.590;2023-03-11T07:41:28;0.96;92.04
71627;DHT22;59475;52.464;13.590;2023-03-11T07:43:55;0.96;92.30
71627;DHT22;59475;52.464;13.590;2023-03-11T07:46:22;0.96;91.06
71627;DHT22;59475;52.464;13.590;2023-03-11T07:48:48;0.99;90.49
71627;DHT22;59475;52.464;13.590;2023-03-11T07:51:22;0.97;90.10
71627;DHT22;59475;52.464;13.590;2023-03-11T07:53:51;0.93;90.13
71627;DHT22;59475;52.464;13.590;2023-03-11T07:56:18;0.92;89.80
71627;DHT22;59475;52.464;13.590;2023-03-11T07:58:43;0.89;90.80
71627;DHT22;59475;52.464;13.590;2023-03-11T08:01:12;0.84;91.24
71627;DHT22;59475;52.464;13.590;2023-03-11T08:03:37;1.01;91.42
71627;DHT22;59475;52.464;13.590;2023-03-11T08:06:20;1.13;91.73
71627;DHT22;59475;52.464;13.590;2023-03-11T08:08:47;1.28;92.08
71627;DHT22;59475;52.464;13.590;2023-03-11T08:11:13;1.23;91.01
71627;DHT22;59475;52.464;13.590;2023-03-11T08:13:41;1.38;90.91
71627;DHT22;59475;52.464;13.590;2023-03-11T08:16:08;1.38;90.50
71627;DHT22;59475;52.464;13.590;2023-03-11T08:18:33;1.28;90.69
71627;DHT22;59475;52.464;13.590;2023-03-11T08:21:03;1.24;90.38
71627;DHT22;59475;52.464;13.590;2023-03-11T08:23:29;1.26;91.21
71627;DHT22;59475;52.464;13.590;2023-03-11T08:25:54;1.24;90.87
71627;DHT22;59475;52.464;13.590;2023-03-11T08:28:20;1.18;89.93
71627;DHT22;59475;52.464;13.590;2023-03-11T08:30:45;1.27;89.82
71627;DHT22;59475;52.464;13.590;2023-03-11T08:33:10;1.23;89.57
71627;DHT22;59475;52.464;13.590;2023-03-11T08:35:36;1.18;89.28
71627;DHT22;59475;52.464;13.590;2023-03-11T08:38:01;1.16;89.83
71627;DHT22;59475;52.464;13.590;2023-03-11T08:40:27;1.16;89.63
71627;DHT22;59475;52.464;13.590;2023-03-11T08:42:54;1.28;89.29
71627;DHT22;59475;52.464;13.590;2023-03-11T08:45:20;1.44;88.74
71627;DHT22;59475;52.464;13.590;2023-03-11T08:47:46;1.47;88.83
71627;DHT22;59475;52.464;13.590;2023-03-11T08:50:15;1.45;88.94
71627;DHT22;59475;52.464;13.590;2023-03-11T08:52:40;1.62;89.10
71627;DHT22;59475;52.464;13.590;2023-03-11T08:55:06;1.66;88.55
71627;DHT22;59475;52.464;13.590;2023-03-11T08:57:33;1.68;88.13
71627;DHT22;59475;52.464;13.590;2023-03-11T08:59:58;1.83;88.33
71627;DHT22;59475;52.464;13.590;2023-03-11T09:02:24;1.77;86.56
71627;DHT22;59475;52.464;13.590;2023-03-11T09:04:50;1.76;88.06
71627;DHT22;59475;52.464;13.590;2023-03-11T09:07:15;1.68;86.71
71627;DHT22;59475;52.464;13.590;2023-03-11T09:09:41;1.63;87.82
71627;DHT22;59475;52.464;13.590;2023-03-11T09:12:07;1.56;87.39
71627;DHT22;59475;52.464;13.590;2023-03-11T09:14:32;1.48;88.05
71627;DHT22;59475;52.464;13.590;2023-03-11T09:16:59;1.45;87.60
71627;DHT22;59475;52.464;13.590;2023-03-11T09:19:25;1.45;88.02
71627;DHT22;59475;52.464;13.590;2023-03-11T09:21:50;1.51;88.52
71627;DHT22;59475;52.464;13.590;2023-03-11T09:24:16;1.68;88.15
71627;DHT22;59475;52.464;13.590;2023-03-11T09:26:41;1.83;87.99
71627;DHT22;59475;52.464;13.590;2023-03-11T09:29:06;1.70;86.95
71627;DHT22;59475;52.464;13.590;2023-03-11T09:31:32;1.69;87.28
71627;DHT22;59475;52.464;13.590;2023-03-11T09:33:57;1.68;88.16
71627;DHT22;59475;52.464;13.590;2023-03-11T09:36:22;1.69;88.04
71627;DHT22;59475;52.464;13.590;2023-03-11T09:38:48;1.72;88.59
71627;DHT22;59475;52.464;13.590;2023-03-11T09:44:07;1.77;87.06
71627;DHT22;59475;52.464;13.590;2023-03-11T09:55:46;1.73;88.04
71627;DHT22;59475;52.464;13.590;2023-03-11T09:58:30;1.76;88.16
71627;DHT22;59475;52.464;13.590;2023-03-11T10:00:59;1.77;88.21
71627;DHT22;59475;52.464;13.590;2023-03-11T10:03:29;1.96;88.47
71627;DHT22;59475;52.464;13.590;2023-03-11T10:06:16;2.20;87.10
71627;DHT22;59475;52.464;13.590;2023-03-11T10:09:02;2.34;86.76
71627;DHT22;59475;52.464;13.590;2023-03-11T10:25:14;2.58;86.62
71627;DHT22;59475;52.464;13.590;2023-03-11T10:27:47;2.45;85.19
71627;DHT22;59475;52.464;13.590;2023-03-11T10:30:35;2.56;84.20
71627;DHT22;59475;52.464;13.590;2023-03-11T10:33:23;2.48;84.62
71627;DHT22;59475;52.464;13.590;2023-03-11T10:35:53;2.41;84.97
71627;DHT22;59475;52.464;13.590;2023-03-11T10:38:25;2.35;85.69
71627;DHT22;59475;52.464;13.590;2023-03-11T10:40:57;2.40;84.68
71627;DHT22;59475;52.464;13.590;2023-03-11T10:43:40;2.34;85.21
71627;DHT22;59475;52.464;13.590;2023-03-11T10:46:34;2.48;86.54
71627;DHT22;59475;52.464;13.590;2023-03-11T10:48:59;2.41;84.72
71627;DHT22;59475;52.464;13.590;2023-03-11T10:51:34;2.32;85.76
71627;DHT22;59475;52.464;13.590;2023-03-11T10:54:00;2.31;85.15
71627;DHT22;59475;52.464;13.590;2023-03-11T10:56:38;2.21;85.58
71627;DHT22;59475;52.464;13.590;2023-03-11T10:59:21;2.31;86.53
71627;DHT22;59475;52.464;13.590;2023-03-11T11:02:01;2.31;86.36
71627;DHT22;59475;52.464;13.590;2023-03-11T11:04:37;2.31;86.47
71627;DHT22;59475;52.464;13.590;2023-03-11T11:09:45;2.44;84.88
71627;DHT22;59475;52.464;13.590;2023-03-11T11:12:14;2.53;84.79
71627;DHT22;59475;52.464;13.590;2023-03-11T11:14:47;2.53;83.46
71627;DHT22;59475;52.464;13.590;2023-03-11T11:17:30;2.52;83.31
71627;DHT22;59475;52.464;13.590;2023-03-11T11:19:58;2.42;83.53
71627;DHT22;59475;52.464;13.590;2023-03-11T11:22:25;2.41;84.08
71627;DHT22;59475;52.464;13.590;2023-03-11T11:24:53;2.40;83.98
71627;DHT22;59475;52.464;13.590;2023-03-11T11:27:25;2.46;83.80
71627;DHT22;59475;52.464;13.590;2023-03-11T11:30:14;2.61;83.56
71627;DHT22;59475;52.464;13.590;2023-03-11T11:32:40;2.93;83.53
71627;DHT22;59475;52.464;13.590;2023-03-11T11:35:10;3.17;83.29
71627;DHT22;59475;52.464;13.590;2023-03-11T11:37:39;3.11;80.58
71627;DHT22;59475;52.464;13.590;2023-03-11T11:42:49;2.86;81.39
71627;DHT22;59475;52.464;13.590;2023-03-11T11:45:36;2.76;81.97
71627;DHT22;59475;52.464;13.590;2023-03-11T11:48:13;2.73;81.73
71627;DHT22;59475;52.464;13.590;2023-03-11T11:50:50;2.82;82.09
71627;DHT22;59475;52.464;13.590;2023-03-11T11:53:43;2.95;82.04
71627;DHT22;59475;52.464;13.590;2023-03-11T11:56:10;2.96;81.72
71627;DHT22;59475;52.464;13.590;2023-03-11T11:58:35;2.95;82.10
71627;DHT22;59475;52.464;13.590;2023-03-11T12:06:36;3.17;81.72
71627;DHT22;59475;52.464;13.590;2023-03-11T12:11:39;2.97;79.82
71627;DHT22;59475;52.464;13.590;2023-03-11T12:14:34;2.80;80.82
71627;DHT22;59475;52.464;13.590;2023-03-11T12:17:02;2.75;81.99
71627;DHT22;59475;52.464;13.590;2023-03-11T12:27:30;2.85;81.50
71627;DHT22;59475;52.464;13.590;2023-03-11T12:30:03;2.75;80.85
71627;DHT22;59475;52.464;13.590;2023-03-11T12:32:38;2.79;80.50
71627;DHT22;59475;52.464;13.590;2023-03-11T12:37:43;2.86;81.13
71627;DHT22;59475;52.464;13.590;2023-03-11T12:40:46;2.85;80.25
71627;DHT22;59475;52.464;13.590;2023-03-11T12:45:59;3.01;78.79
71627;DHT22;59475;52.464;13.590;2023-03-11T12:50:59;2.97;78.40
71627;DHT22;59475;52.464;13.590;2023-03-11T13:02:41;2.71;79.30
71627;DHT22;59475;52.464;13.590;2023-03-11T13:10:53;2.93;78.07
71627;DHT22;59475;52.464;13.590;2023-03-11T13:13:37;2.99;78.32
71627;DHT22;59475;52.464;13.590;2023-03-11T13:18:38;2.93;76.12
71627;DHT22;59475;52.464;13.590;2023-03-11T13:26:46;2.71;77.06
71627;DHT22;59475;52.464;13.590;2023-03-11T13:40:32;2.85;79.01
71627;DHT22;59475;52.464;13.590;2023-03-11T13:43:20;3.06;78.08
71627;DHT22;59475;52.464;13.590;2023-03-11T13:46:02;3.18;77.58
71627;DHT22;59475;52.464;13.590;2023-03-11T13:48:32;3.23;76.23
71627;DHT22;59475;52.464;13.590;2023-03-11T13:51:04;3.21;76.63
71627;DHT22;59475;52.464;13.590;2023-03-11T13:53:38;3.14;77.53
71627;DHT22;59475;52.464;13.590;2023-03-11T13:56:16;3.01;77.17
71627;DHT22;59475;52.464;13.590;2023-03-11T13:58:42;2.93;77.38
71627;DHT22;59475;52.464;13.590;2023-03-11T14:01:14;2.92;76.92
71627;DHT22;59475;52.464;13.590;2023-03-11T14:03:42;2.86;76.55
71627;DHT22;59475;52.464;13.590;2023-03-11T14:06:14;2.78;76.49
71627;DHT22;59475;52.464;13.590;2023-03-11T14:08:40;2.72;78.22
71627;DHT22;59475;52.464;13.590;2023-03-11T14:13:42;2.83;76.07
71627;DHT22;59475;52.464;13.590;2023-03-11T14:16:14;2.97;76.98
71627;DHT22;59475;52.464;13.590;2023-03-11T14:18:42;3.07;74.74
71627;DHT22;59475;52.464;13.590;2023-03-11T14:21:19;3.10;75.32
71627;DHT22;59475;52.464;13.590;2023-03-11T14:23:52;3.18;75.60
71627;DHT22;59475;52.464;13.590;2023-03-11T14:26:29;3.23;74.21
71627;DHT22;59475;52.464;13.590;2023-03-11T14:28:57;3.17;73.96
71627;DHT22;59475;52.464;13.590;2023-03-11T14:34:19;2.86;75.95
71627;DHT22;59475;52.464;13.590;2023-03-11T14:36:48;2.88;76.20
71627;DHT22;59475;52.464;13.590;2023-03-11T14:39:31;2.86;76.99
71627;DHT22;59475;52.464;13.590;2023-03-11T14:42:20;2.92;76.19
71627;DHT22;59475;52.464;13.590;2023-03-11T14:44:50;2.86;75.40
71627;DHT22;59475;52.464;13.590;2023-03-11T14:49:52;2.78;76.45
71627;DHT22;59475;52.464;13.590;2023-03-11T14:52:24;2.71;74.40
71627;DHT22;59475;52.464;13.590;2023-03-11T14:54:52;2.68;74.75
71627;DHT22;59475;52.464;13.590;2023-03-11T14:57:53;2.63;75.19
71627;DHT22;59475;52.464;13.590;2023-03-11T15:00:49;2.71;75.71
71627;DHT22;59475;52.464;13.590;2023-03-11T15:03:50;2.65;75.27
71627;DHT22;59475;52.464;13.590;2023-03-11T15:06:18;2.58;74.80
71627;DHT22;59475;52.464;13.590;2023-03-11T15:08:51;2.56;76.22
71627;DHT22;59475;52.464;13.590;2023-03-11T15:11:23;2.48;76.27
71627;DHT22;59475;52.464;13.590;2023-03-11T15:13:50;2.42;76.72
71627;DHT22;59475;52.464;13.590;2023-03-11T15:16:33;2.35;76.67
71627;DHT22;59475;52.464;13.590;2023-03-11T15:19:28;2.32;77.52
71627;DHT22;59475;52.464;13.590;2023-03-11T15:21:49;2.30;77.17
71627;DHT22;59475;52.464;13.590;2023-03-11T15:24:22;2.32;77.88
71627;DHT22;59475;52.464;13.590;2023-03-11T15:27:06;2.34;77.24
71627;DHT22;59475;52.464;13.590;2023-03-11T15:29:33;2.40;77.05
71627;DHT22;59475;52.464;13.590;2023-03-11T15:32:00;2.42;76.09
71627;DHT22;59475;52.464;13.590;2023-03-11T15:34:58;2.38;73.51
71627;DHT22;59475;52.464;13.590;2023-03-11T15:37:25;2.34;73.56
71627;DHT22;59475;52.464;13.590;2023-03-11T15:39:50;2.28;73.62
71627;DHT22;59475;52.464;13.590;2023-03-11T15:42:26;2.21;73.95
71627;DHT22;59475;52.464;13.590;2023-03-11T15:45:12;2.18;70.91
71627;DHT22;59475;52.464;13.590;2023-03-11T15:47:39;2.20;71.48
71627;DHT22;59475;52.464;13.590;2023-03-11T15:50:25;2.17;72.47
71627;DHT22;59475;52.464;13.590;2023-03-11T15:52:55;2.17;72.85
71627;DHT22;59475;52.464;13.590;2023-03-11T15:55:21;2.11;73.16
71627;DHT22;59475;52.464;13.590;2023-03-11T15:57:47;2.14;73.20
71627;DHT22;59475;52.464;13.590;2023-03-11T16:00:19;2.17;73.12
71627;DHT22;59475;52.464;13.590;2023-03-11T16:02:48;2.24;72.98
71627;DHT22;59475;52.464;13.590;2023-03-11T16:05:24;2.25;72.94
71627;DHT22;59475;52.464;13.590;2023-03-11T16:07:49;2.25;72.97
71627;DHT22;59475;52.464;13.590;2023-03-11T16:10:24;2.35;73.22
71627;DHT22;59475;52.464;13.590;2023-03-11T16:12:52;2.35;73.29
71627;DHT22;59475;52.464;13.590;2023-03-11T16:15:22;2.35;73.32
71627;DHT22;59475;52.464;13.590;2023-03-11T16:17:50;2.34;73.66
71627;DHT22;59475;52.464;13.590;2023-03-11T16:20:18;2.31;74.18
71627;DHT22;59475;52.464;13.590;2023-03-11T16:22:44;2.32;74.04
71627;DHT22;59475;52.464;13.590;2023-03-11T16:27:44;2.32;73.88
71627;DHT22;59475;52.464;13.590;2023-03-11T16:30:11;2.35;73.02
71627;DHT22;59475;52.464;13.590;2023-03-11T16:32:40;2.40;73.06
71627;DHT22;59475;52.464;13.590;2023-03-11T16:35:06;2.34;71.40
71627;DHT22;59475;52.464;13.590;2023-03-11T16:37:31;2.31;70.74
71627;DHT22;59475;52.464;13.590;2023-03-11T16:39:56;2.23;70.66
71627;DHT22;59475;52.464;13.590;2023-03-11T16:42:22;2.18;70.15
71627;DHT22;59475;52.464;13.590;2023-03-11T16:44:51;2.20;70.47
71627;DHT22;59475;52.464;13.590;2023-03-11T16:47:17;2.11;70.68
71627;DHT22;59475;52.464;13.590;2023-03-11T16:49:42;2.09;71.28
71627;DHT22;59475;52.464;13.590;2023-03-11T16:52:07;2.00;72.09
71627;DHT22;59475;52.464;13.590;2023-03-11T16:54:33;1.96;72.38
71627;DHT22;59475;52.464;13.590;2023-03-11T16:56:59;1.82;73.12
71627;DHT22;59475;52.464;13.590;2023-03-11T16:59:24;1.79;72.70
71627;DHT22;59475;52.464;13.590;2023-03-11T17:01:50;1.83;72.55
71627;DHT22;59475;52.464;13.590;2023-03-11T17:04:15;1.80;72.84
71627;DHT22;59475;52.464;13.590;2023-03-11T17:06:40;1.75;73.15
71627;DHT22;59475;52.464;13.590;2023-03-11T17:09:06;1.70;73.22
71627;DHT22;59475;52.464;13.590;2023-03-11T17:11:31;1.59;74.04
71627;DHT22;59475;52.464;13.590;2023-03-11T17:13:58;1.52;74.53
71627;DHT22;59475;52.464;13.590;2023-03-11T17:16:23;1.47;75.17
71627;DHT22;59475;52.464;13.590;2023-03-11T17:18:49;1.37;75.84
71627;DHT22;59475;52.464;13.590;2023-03-11T17:21:15;1.34;76.09
71627;DHT22;59475;52.464;13.590;2023-03-11T17:23:41;1.32;76.66
71627;DHT22;59475;52.464;13.590;2023-03-11T17:26:15;1.41;76.20
71627;DHT22;59475;52.464;13.590;2023-03-11T17:28:41;1.39;76.13